Time;durP1;ratioP1;P1;durP2;ratioP2;P2;SDS_P1;SDS_P2;PMS_P1;PMS_P2;Temp;Humidity;BMP_temperature;BMP_pressure;BME280_temperature;BME280_humidity;BME280_pressure;Samples;Min_cycle;Max_cycle;Signal;HPM_P1;HPM_P2
2022/11/11 00:02:17;;;;;;;12.82;5.00;;;9.10;99.90;;;;;;5045762;28;20487;-84
2022/11/11 00:05:03;;;;;;;12.18;6.05;;;9.10;99.90;;;;;;5041217;28;20037;-83
2022/11/11 00:07:48;;;;;;;14.05;4.82;;;9.10;99.90;;;;;;5028531;28;20052;-85
2022/11/11 00:10:33;;;;;;;9.48;5.28;;;9.20;99.90;;;;;;5042671;28;20460;-84
2022/11/11 00:13:18;;;;;;;10.68;5.78;;;9.20;99.90;;;;;;5037131;28;20036;-81
2022/11/11 00:16:10;;;;;;;13.68;5.65;;;9.20;99.90;;;;;;5044954;28;20424;-87
2022/11/11 00:25:05;;;;;;;13.77;6.32;;;9.20;99.90;;;;;;5044485;28;20872;-85
2022/11/11 00:27:51;;;;;;;13.30;6.30;;;9.30;99.90;;;;;;5042212;28;20380;-85
2022/11/11 00:30:35;;;;;;;11.55;5.45;;;9.40;99.90;;;;;;5043201;28;20056;-84
2022/11/11 00:33:20;;;;;;;10.77;7.05;;;9.50;99.90;;;;;;5025870;28;20040;-85
2022/11/11 00:36:06;;;;;;;12.35;6.28;;;9.50;99.90;;;;;;5044124;28;20410;-82
2022/11/11 00:38:54;;;;;;;14.95;6.05;;;9.60;99.90;;;;;;5044656;28;20035;-84
2022/11/11 00:41:39;;;;;;;12.45;6.25;;;9.70;99.90;;;;;;5027376;28;20029;-84
2022/11/11 00:44:23;;;;;;;12.70;6.20;;;9.80;99.90;;;;;;5040981;28;20487;-84
2022/11/11 00:53:31;;;;;;;12.13;6.22;;;9.90;99.90;;;;;;5042340;28;20056;-85
2022/11/11 00:56:16;;;;;;;13.15;8.68;;;9.90;99.90;;;;;;5032126;28;20028;-80
2022/11/11 00:59:05;;;;;;;18.45;9.98;;;10.00;99.90;;;;;;5044812;28;20079;-83
2022/11/11 01:01:51;;;;;;;16.42;9.10;;;10.00;99.90;;;;;;5040839;28;20047;-84
2022/11/11 01:04:36;;;;;;;15.15;11.88;;;10.00;99.90;;;;;;5042373;28;20502;-83
2022/11/11 01:07:21;;;;;;;13.70;8.45;;;10.00;99.90;;;;;;5044557;28;20032;-83
2022/11/11 01:10:06;;;;;;;17.00;10.57;;;10.10;99.90;;;;;;5032633;28;20060;-82
2022/11/11 01:13:10;;;;;;;18.58;11.70;;;10.00;99.90;;;;;;5043999;28;20048;-79
2022/11/11 01:16:03;;;;;;;20.70;12.63;;;10.10;99.90;;;;;;5045168;28;20439;-83
2022/11/11 01:18:50;;;;;;;14.23;11.07;;;10.10;99.90;;;;;;5042009;28;20511;-82
2022/11/11 01:21:35;;;;;;;15.18;11.10;;;10.10;99.90;;;;;;5026089;28;20041;-83
2022/11/11 01:24:19;;;;;;;20.98;11.80;;;10.10;99.90;;;;;;5025390;28;20041;-80
2022/11/11 01:27:04;;;;;;;17.67;11.18;;;10.10;99.90;;;;;;5045387;28;20044;-82
2022/11/11 01:29:49;;;;;;;19.40;11.10;;;10.10;99.90;;;;;;5045219;28;20029;-83
2022/11/11 01:32:34;;;;;;;16.65;12.15;;;10.10;99.90;;;;;;5040276;28;20044;-83
2022/11/11 01:35:19;;;;;;;16.77;10.75;;;10.20;99.90;;;;;;5042374;28;20033;-83
2022/11/11 01:38:04;;;;;;;16.98;11.27;;;10.10;99.90;;;;;;5044798;28;20036;-83
2022/11/11 01:40:49;;;;;;;17.25;11.95;;;10.20;99.90;;;;;;5027252;28;20407;-82
2022/11/11 01:43:34;;;;;;;21.83;14.10;;;10.20;99.90;;;;;;5039667;28;20049;-84
2022/11/11 01:46:56;;;;;;;20.17;13.18;;;10.20;99.90;;;;;;5043784;28;20399;-82
2022/11/11 01:50:00;;;;;;;16.67;11.63;;;10.20;99.90;;;;;;5046784;28;20033;-81
2022/11/11 01:52:46;;;;;;;16.33;12.05;;;10.20;99.90;;;;;;5042451;28;20031;-80
2022/11/11 01:55:31;;;;;;;20.98;13.38;;;10.20;99.90;;;;;;5043944;28;20041;-85
2022/11/11 01:58:18;;;;;;;18.60;11.85;;;10.20;99.90;;;;;;5044573;28;20480;-81
2022/11/11 02:01:04;;;;;;;21.65;13.48;;;10.20;99.90;;;;;;5042506;28;20049;-84
2022/11/11 02:07:04;;;;;;;24.95;16.02;;;10.30;99.90;;;;;;5044355;28;20041;-86
2022/11/11 02:09:51;;;;;;;16.80;12.68;;;10.30;99.90;;;;;;5042845;28;20037;-82
2022/11/11 02:15:40;;;;;;;15.98;13.10;;;10.30;99.90;;;;;;5041121;28;20057;-80
2022/11/11 02:18:26;;;;;;;15.40;12.40;;;10.30;99.90;;;;;;5041999;28;20025;-85
2022/11/11 02:21:23;;;;;;;20.45;16.25;;;10.40;99.90;;;;;;5039445;28;20051;-82
2022/11/11 02:24:12;;;;;;;21.15;15.20;;;10.40;99.90;;;;;;5038946;28;20033;-81
2022/11/11 02:26:58;;;;;;;23.48;15.60;;;10.40;99.90;;;;;;5041536;28;20485;-81
2022/11/11 02:29:46;;;;;;;16.17;12.68;;;10.40;99.90;;;;;;5027626;28;20044;-84
2022/11/11 02:32:31;;;;;;;26.98;17.73;;;10.40;99.90;;;;;;5041681;28;20041;-84
2022/11/11 02:35:22;;;;;;;21.65;15.70;;;10.40;99.90;;;;;;5026124;28;20495;-84
2022/11/11 02:38:10;;;;;;;23.23;14.65;;;10.40;99.90;;;;;;5041458;28;20048;-83
2022/11/11 02:43:59;;;;;;;23.60;15.88;;;10.50;99.90;;;;;;5039344;28;20504;-79
2022/11/11 02:46:43;;;;;;;18.42;13.73;;;10.40;99.90;;;;;;5046362;28;20040;-78
2022/11/11 02:49:29;;;;;;;16.77;12.57;;;10.50;99.90;;;;;;5043536;28;20037;-84
2022/11/11 02:52:13;;;;;;;20.75;14.93;;;10.50;99.90;;;;;;5024768;28;20048;-82
2022/11/11 02:54:59;;;;;;;18.80;14.35;;;10.50;99.90;;;;;;5039496;28;20048;-84
2022/11/11 02:57:44;;;;;;;18.13;13.63;;;10.50;99.90;;;;;;5043011;28;20348;-83
2022/11/11 03:00:29;;;;;;;23.35;16.38;;;10.50;99.90;;;;;;5038324;28;20045;-84
2022/11/11 03:03:14;;;;;;;18.15;13.35;;;10.50;99.90;;;;;;5024482;28;20040;-83
2022/11/11 03:05:59;;;;;;;16.95;11.40;;;10.50;99.90;;;;;;5042083;28;20184;-82
2022/11/11 03:08:44;;;;;;;18.95;12.98;;;10.50;99.90;;;;;;5043830;28;20031;-83
2022/11/11 03:11:28;;;;;;;18.25;13.18;;;10.60;99.90;;;;;;5024318;28;20044;-82
2022/11/11 03:14:13;;;;;;;17.95;13.40;;;10.50;99.90;;;;;;5024717;28;20047;-81
2022/11/11 03:23:08;;;;;;;16.90;12.38;;;10.60;99.90;;;;;;5038890;28;20049;-81
2022/11/11 03:25:53;;;;;;;18.48;14.15;;;10.60;99.90;;;;;;5039983;28;20036;-83
2022/11/11 03:28:38;;;;;;;21.38;14.80;;;10.50;99.90;;;;;;5042482;28;20048;-81
2022/11/11 03:31:22;;;;;;;18.08;13.05;;;10.50;99.90;;;;;;5040056;28;20041;-83
2022/11/11 03:34:19;;;;;;;19.83;14.38;;;10.50;99.90;;;;;;5043592;28;20044;-80
2022/11/11 03:40:13;;;;;;;21.42;13.68;;;10.50;99.90;;;;;;5042869;28;20037;-77
2022/11/11 03:42:58;;;;;;;17.95;10.60;;;10.50;99.90;;;;;;5045070;28;20047;-82
2022/11/11 03:45:43;;;;;;;15.80;11.90;;;10.50;99.90;;;;;;5047396;28;20244;-83
2022/11/11 03:48:31;;;;;;;18.23;12.18;;;10.50;99.90;;;;;;5051315;28;20048;-85
2022/11/11 03:51:16;;;;;;;14.30;10.70;;;10.50;99.90;;;;;;5031191;28;20033;-82
2022/11/11 03:54:01;;;;;;;17.42;13.70;;;10.60;99.90;;;;;;5041246;28;21072;-82
2022/11/11 03:56:46;;;;;;;16.33;11.50;;;10.60;99.90;;;;;;5051344;28;20028;-78
2022/11/11 03:59:30;;;;;;;13.95;11.25;;;10.60;99.90;;;;;;5046527;28;20060;-85
2022/11/11 04:11:35;;;;;;;18.83;13.20;;;10.50;99.90;;;;;;5042423;28;20045;-83
2022/11/11 04:17:23;;;;;;;16.73;13.52;;;10.50;99.90;;;;;;5046096;28;20040;-85
2022/11/11 04:23:12;;;;;;;16.13;11.73;;;10.50;99.90;;;;;;5047918;28;20463;-83
2022/11/11 04:26:00;;;;;;;15.93;9.98;;;10.50;99.90;;;;;;5044199;28;20025;-83
2022/11/11 04:29:30;;;;;;;16.05;9.27;;;10.50;99.90;;;;;;5032419;28;20025;-81
2022/11/11 04:34:56;;;;;;;19.45;12.15;;;10.50;99.90;;;;;;5044489;28;20032;-81
2022/11/11 04:37:49;;;;;;;18.95;11.15;;;10.50;99.90;;;;;;5049466;28;20047;-82
2022/11/11 04:46:41;;;;;;;18.33;11.65;;;10.50;99.90;;;;;;5046337;28;20063;-81
2022/11/11 04:49:26;;;;;;;19.27;13.75;;;10.50;99.90;;;;;;5045690;28;20044;-82
2022/11/11 04:52:26;;;;;;;22.58;11.75;;;10.50;99.90;;;;;;5041677;28;20135;-79
2022/11/11 04:58:17;;;;;;;19.67;13.25;;;10.40;99.90;;;;;;5046411;28;20060;-82
2022/11/11 05:01:02;;;;;;;13.20;10.90;;;10.40;99.90;;;;;;5042832;28;20060;-82
2022/11/11 05:03:47;;;;;;;12.57;8.75;;;10.50;99.90;;;;;;5041575;28;20044;-80
2022/11/11 05:09:36;;;;;;;15.93;11.15;;;10.40;99.90;;;;;;5045868;28;20033;-84
2022/11/11 05:12:21;;;;;;;17.23;11.18;;;10.40;99.90;;;;;;5041647;28;20420;-82
2022/11/11 05:21:24;;;;;;;13.55;10.00;;;10.40;99.90;;;;;;5043034;28;20029;-82
2022/11/11 05:27:13;;;;;;;13.63;9.90;;;10.40;99.90;;;;;;5045734;28;20483;-78
2022/11/11 05:29:58;;;;;;;16.77;11.73;;;10.40;99.90;;;;;;5042744;28;20766;-81
2022/11/11 05:32:43;;;;;;;14.57;10.90;;;10.40;99.90;;;;;;5043666;28;20047;-83
2022/11/11 05:35:28;;;;;;;14.77;10.82;;;10.40;99.90;;;;;;5042057;28;20052;-81
2022/11/11 05:38:21;;;;;;;14.70;10.00;;;10.40;99.90;;;;;;5029078;28;20399;-80
2022/11/11 05:41:08;;;;;;;14.35;10.68;;;10.40;99.90;;;;;;5042432;28;20040;-84
2022/11/11 05:43:52;;;;;;;16.98;11.27;;;10.40;99.90;;;;;;5026445;28;20523;-77
2022/11/11 05:46:37;;;;;;;14.77;9.82;;;10.40;99.90;;;;;;5044604;28;20047;-83
2022/11/11 05:49:23;;;;;;;14.75;9.45;;;10.40;99.90;;;;;;5044189;28;20460;-84
2022/11/11 05:52:10;;;;;;;13.35;9.73;;;10.40;99.90;;;;;;5040831;28;20484;-84
2022/11/11 05:54:55;;;;;;;17.60;11.07;;;10.40;99.90;;;;;;5039533;28;20028;-84
2022/11/11 05:57:40;;;;;;;16.55;10.68;;;10.30;99.90;;;;;;5042711;28;20045;-81
2022/11/11 06:00:25;;;;;;;15.52;9.63;;;10.30;99.90;;;;;;5029366;28;20419;-84
2022/11/11 06:03:10;;;;;;;13.70;8.77;;;10.30;99.90;;;;;;5043235;28;20036;-83
2022/11/11 06:05:54;;;;;;;14.57;10.40;;;10.30;99.90;;;;;;5027608;28;20044;-82
2022/11/11 06:08:39;;;;;;;14.65;10.27;;;10.30;99.90;;;;;;5044212;28;20155;-85
2022/11/11 06:11:24;;;;;;;15.43;11.48;;;10.30;99.90;;;;;;5040319;28;20044;-84
2022/11/11 06:14:09;;;;;;;20.45;13.38;;;10.30;99.90;;;;;;5028158;28;20036;-84
2022/11/11 06:16:54;;;;;;;19.08;11.80;;;10.30;99.90;;;;;;5042565;28;20046;-82
2022/11/11 06:19:39;;;;;;;14.38;9.57;;;10.30;99.90;;;;;;5041892;28;20044;-81
2022/11/11 06:22:54;;;;;;;15.07;9.90;;;10.30;99.90;;;;;;5039680;28;20502;-80
2022/11/11 06:28:34;;;;;;;15.10;9.73;;;10.20;99.90;;;;;;5046345;28;20562;-84
2022/11/11 06:31:25;;;;;;;16.67;9.50;;;10.20;99.90;;;;;;5028540;28;20044;-82
2022/11/11 06:34:10;;;;;;;21.77;12.45;;;10.20;99.90;;;;;;5043822;28;20051;-85
2022/11/11 06:36:55;;;;;;;16.10;10.77;;;10.20;99.90;;;;;;5044214;28;20037;-81
2022/11/11 06:39:40;;;;;;;13.60;10.77;;;10.20;99.90;;;;;;5045831;28;20033;-86
2022/11/11 06:42:24;;;;;;;17.13;11.95;;;10.20;99.90;;;;;;5042205;28;20028;-84
2022/11/11 06:45:09;;;;;;;14.13;10.20;;;10.20;99.90;;;;;;5046684;28;20408;-85
2022/11/11 06:47:55;;;;;;;18.48;14.10;;;10.20;99.90;;;;;;5045495;28;20029;-82
2022/11/11 06:50:39;;;;;;;14.90;10.95;;;10.20;99.90;;;;;;5028379;28;20041;-84
2022/11/11 06:53:24;;;;;;;17.73;11.88;;;10.20;99.90;;;;;;5024647;28;20472;-83
2022/11/11 06:56:11;;;;;;;23.88;14.05;;;10.20;99.90;;;;;;5044042;28;20483;-84
2022/11/11 06:58:56;;;;;;;19.92;12.88;;;10.10;99.90;;;;;;5043843;28;20036;-84
2022/11/11 07:01:41;;;;;;;16.63;12.52;;;10.10;99.90;;;;;;5040366;28;20041;-81
2022/11/11 07:04:25;;;;;;;21.15;16.45;;;10.10;99.90;;;;;;5040138;28;20041;-84
2022/11/11 07:07:10;;;;;;;20.85;14.80;;;10.10;99.90;;;;;;5043761;28;20043;-85
2022/11/11 07:09:55;;;;;;;15.50;11.88;;;10.10;99.90;;;;;;5043940;28;20364;-85
2022/11/11 07:12:41;;;;;;;17.38;13.98;;;10.10;99.90;;;;;;5042090;28;20040;-84
2022/11/11 07:15:26;;;;;;;15.98;12.50;;;10.10;99.90;;;;;;5041907;28;20468;-82
2022/11/11 07:18:11;;;;;;;17.20;13.73;;;10.10;99.90;;;;;;5029670;28;20053;-83
2022/11/11 07:20:57;;;;;;;22.23;16.48;;;10.10;99.90;;;;;;5040811;28;20257;-81
2022/11/11 07:23:41;;;;;;;18.90;14.63;;;10.00;99.90;;;;;;5039891;28;20048;-82
2022/11/11 07:26:26;;;;;;;24.67;17.58;;;10.00;99.90;;;;;;5039713;28;20047;-87
2022/11/11 07:29:13;;;;;;;20.27;15.00;;;10.00;99.90;;;;;;5040902;28;20047;-85
2022/11/11 07:31:57;;;;;;;20.73;15.60;;;10.00;99.90;;;;;;5041372;28;20047;-80
2022/11/11 07:34:45;;;;;;;26.42;17.65;;;10.00;99.90;;;;;;5039605;28;20048;-81
2022/11/11 07:37:30;;;;;;;17.35;13.20;;;10.00;99.90;;;;;;5027899;28;20040;-81
2022/11/11 07:40:17;;;;;;;18.10;13.02;;;10.00;99.90;;;;;;5041271;28;20040;-81
2022/11/11 07:43:02;;;;;;;29.85;19.02;;;10.00;99.90;;;;;;5039899;28;20037;-84
2022/11/11 07:45:46;;;;;;;25.55;17.73;;;10.00;99.90;;;;;;5029217;28;20033;-81
2022/11/11 07:48:31;;;;;;;20.15;15.82;;;10.00;99.90;;;;;;5039819;28;20063;-87
2022/11/11 07:51:16;;;;;;;21.35;15.93;;;9.90;99.90;;;;;;5036578;28;20032;-84
2022/11/11 07:54:01;;;;;;;26.67;16.23;;;9.90;99.90;;;;;;5026145;28;20044;-85
2022/11/11 07:56:46;;;;;;;22.90;17.98;;;9.90;99.90;;;;;;5041664;28;20390;-82
2022/11/11 07:59:30;;;;;;;24.48;16.98;;;9.90;99.90;;;;;;5038828;28;20485;-85
2022/11/11 08:02:16;;;;;;;26.17;17.10;;;9.80;99.90;;;;;;5024341;28;20661;-80
2022/11/11 08:05:00;;;;;;;21.38;16.60;;;9.80;99.90;;;;;;5037434;28;20048;-87
2022/11/11 08:07:45;;;;;;;24.88;17.23;;;9.80;99.90;;;;;;5037259;28;20044;-81
2022/11/11 08:10:31;;;;;;;23.65;18.10;;;9.80;99.90;;;;;;5034397;28;20045;-89
2022/11/11 08:16:20;;;;;;;20.02;15.07;;;9.70;99.90;;;;;;5036776;28;20056;-86
2022/11/11 08:19:05;;;;;;;24.90;17.73;;;9.70;99.90;;;;;;5024115;28;20040;-88
2022/11/11 08:21:51;;;;;;;20.42;15.13;;;9.70;99.90;;;;;;5036524;28;20651;-85
2022/11/11 08:24:35;;;;;;;30.05;17.50;;;9.70;99.90;;;;;;5027828;28;20049;-79
2022/11/11 08:27:20;;;;;;;21.63;15.68;;;9.70;99.90;;;;;;5040812;28;20384;-81
2022/11/11 08:30:07;;;;;;;34.03;21.15;;;9.70;99.90;;;;;;5028774;28;20044;-81
2022/11/11 08:32:57;;;;;;;20.67;16.70;;;9.70;99.90;;;;;;5028753;28;20040;-80
2022/11/11 08:35:42;;;;;;;19.85;16.20;;;9.70;99.90;;;;;;5028138;28;20041;-81
2022/11/11 08:38:28;;;;;;;24.42;17.90;;;9.80;99.90;;;;;;5045068;28;20029;-83
2022/11/11 08:41:12;;;;;;;21.55;17.60;;;9.80;99.90;;;;;;5042488;28;20033;-84
2022/11/11 08:43:59;;;;;;;20.35;15.60;;;9.70;99.90;;;;;;5038910;28;20056;-83
2022/11/11 08:46:44;;;;;;;20.23;14.88;;;9.70;99.90;;;;;;5044258;28;20041;-82
2022/11/11 08:49:29;;;;;;;17.42;13.00;;;9.80;99.90;;;;;;5028946;28;20025;-87
2022/11/11 08:52:14;;;;;;;19.38;15.65;;;9.80;99.90;;;;;;5025440;28;20515;-79
2022/11/11 08:54:59;;;;;;;17.98;11.35;;;9.70;99.90;;;;;;5038423;28;20033;-82
2022/11/11 08:57:45;;;;;;;17.85;12.80;;;9.70;99.90;;;;;;5036908;28;20610;-78
2022/11/11 09:00:30;;;;;;;18.65;13.18;;;9.70;99.90;;;;;;5038873;28;20044;-87
2022/11/11 09:03:15;;;;;;;17.08;12.43;;;9.70;99.90;;;;;;5040739;28;20041;-75
2022/11/11 09:06:00;;;;;;;15.55;11.15;;;9.70;99.90;;;;;;5038876;28;20043;-81
2022/11/11 09:08:45;;;;;;;14.55;9.98;;;9.70;99.90;;;;;;5039671;28;20033;-81
2022/11/11 09:11:35;;;;;;;12.38;9.73;;;9.70;99.90;;;;;;5039334;28;20048;-81
2022/11/11 09:14:20;;;;;;;17.83;10.82;;;9.70;99.90;;;;;;5038260;28;20029;-80
2022/11/11 09:17:06;;;;;;;13.90;9.68;;;9.70;99.90;;;;;;5024248;28;20033;-78
2022/11/11 09:19:50;;;;;;;13.68;10.43;;;9.70;99.90;;;;;;5026632;28;20537;-75
2022/11/11 09:22:44;;;;;;;12.10;9.85;;;9.80;99.90;;;;;;5037107;28;20045;-83
2022/11/11 09:25:29;;;;;;;12.77;10.63;;;9.80;99.90;;;;;;5040202;28;20036;-82
2022/11/11 09:28:14;;;;;;;24.08;17.10;;;9.80;99.90;;;;;;5027518;28;20506;-83
2022/11/11 09:31:00;;;;;;;16.08;10.85;;;9.90;99.90;;;;;;5037168;28;20047;-77
2022/11/11 09:33:45;;;;;;;11.90;8.93;;;9.90;99.90;;;;;;5036472;28;20983;-76
2022/11/11 09:36:30;;;;;;;12.45;9.35;;;10.00;99.90;;;;;;5022047;28;20033;-79
2022/11/11 09:39:14;;;;;;;13.32;10.02;;;10.10;99.90;;;;;;5034638;28;20040;-78
2022/11/11 09:42:09;;;;;;;13.18;9.00;;;10.20;99.90;;;;;;5037127;28;20052;-78
2022/11/11 09:45:07;;;;;;;12.60;9.10;;;10.30;99.90;;;;;;5021953;28;20525;-78
2022/11/11 09:48:19;;;;;;;11.43;8.73;;;10.40;99.90;;;;;;5041243;28;20048;-77
2022/11/11 09:51:10;;;;;;;9.95;6.75;;;10.50;99.90;;;;;;5023537;28;20051;-78
2022/11/11 09:54:02;;;;;;;9.43;6.63;;;10.60;99.90;;;;;;5022774;28;20043;-79
2022/11/11 09:56:47;;;;;;;10.55;7.80;;;10.80;99.90;;;;;;5041171;28;20040;-75
2022/11/11 09:59:51;;;;;;;8.45;6.93;;;10.90;99.90;;;;;;5040548;28;20053;-77
2022/11/11 10:02:51;;;;;;;7.30;5.28;;;11.00;99.90;;;;;;5025682;28;20524;-79
2022/11/11 10:06:02;;;;;;;8.25;6.05;;;11.20;99.90;;;;;;5036725;28;20051;-80
2022/11/11 10:09:04;;;;;;;9.35;7.10;;;11.40;99.90;;;;;;5031522;28;20052;-76
2022/11/11 10:12:14;;;;;;;12.35;8.63;;;11.60;99.90;;;;;;5043158;28;20029;-80
2022/11/11 10:15:00;;;;;;;8.20;6.28;;;11.80;99.90;;;;;;5039451;28;20051;-80
2022/11/11 10:18:17;;;;;;;12.23;6.93;;;11.90;99.90;;;;;;5044303;28;20041;-81
2022/11/11 10:21:11;;;;;;;6.53;5.38;;;12.20;99.90;;;;;;5044240;28;20052;-80
2022/11/11 10:24:00;;;;;;;8.57;5.60;;;12.60;99.90;;;;;;5038872;28;20060;-80
2022/11/11 10:26:46;;;;;;;10.73;5.50;;;12.90;99.90;;;;;;5041182;28;20051;-78
2022/11/11 10:29:39;;;;;;;5.70;4.60;;;13.20;99.90;;;;;;5041317;28;20037;-80
2022/11/11 10:32:27;;;;;;;6.22;4.78;;;13.40;99.90;;;;;;5041199;28;20029;-76
2022/11/11 10:35:19;;;;;;;5.75;4.38;;;13.50;99.90;;;;;;5039300;28;20500;-80
2022/11/11 10:38:09;;;;;;;6.60;4.75;;;13.60;99.90;;;;;;5039868;28;20036;-79
2022/11/11 10:40:58;;;;;;;5.60;4.45;;;13.60;99.90;;;;;;5037226;28;20041;-76
2022/11/11 10:43:46;;;;;;;7.10;4.75;;;13.50;99.90;;;;;;5034683;28;20606;-78
2022/11/11 10:46:54;;;;;;;8.02;5.13;;;13.30;99.90;;;;;;5035616;28;20052;-82
2022/11/11 10:49:47;;;;;;;7.00;4.00;;;13.20;99.90;;;;;;5022372;28;20612;-84
2022/11/11 10:52:37;;;;;;;8.07;5.18;;;13.10;99.90;;;;;;5026690;28;20072;-85
2022/11/11 10:55:39;;;;;;;9.23;5.57;;;13.10;99.90;;;;;;5035543;28;20472;-87
2022/11/11 10:58:43;;;;;;;14.52;9.32;;;13.10;99.90;;;;;;5042392;28;20048;-80
2022/11/11 11:01:33;;;;;;;;;;;13.10;99.90;;;;;;5040646;28;20043;-84
2022/11/11 11:04:30;;;;;;;6.63;3.60;;;13.10;99.90;;;;;;5039403;28;19927;-85
2022/11/11 11:07:21;;;;;;;8.20;4.50;;;13.10;99.90;;;;;;5048478;28;20558;-85
2022/11/11 11:10:13;;;;;;;5.38;3.72;;;13.20;99.90;;;;;;5024519;28;20047;-80
2022/11/11 11:13:15;;;;;;;6.40;4.22;;;13.10;99.90;;;;;;5023231;28;20033;-81
2022/11/11 11:16:11;;;;;;;7.18;4.80;;;13.10;99.90;;;;;;5040101;28;20040;-83
2022/11/11 11:19:22;;;;;;;10.38;4.88;;;13.10;99.90;;;;;;5047418;28;20036;-78
2022/11/11 11:22:06;;;;;;;10.68;5.32;;;13.10;99.90;;;;;;5021978;28;20087;-77
2022/11/11 11:25:09;;;;;;;6.53;4.22;;;13.10;99.90;;;;;;5019380;28;20048;-75
2022/11/11 11:28:04;;;;;;;7.88;5.65;;;13.00;99.90;;;;;;5038401;28;20029;-76
2022/11/11 11:31:01;;;;;;;7.30;5.72;;;13.00;99.90;;;;;;5033827;28;20041;-76
2022/11/11 11:33:56;;;;;;;7.40;4.43;;;13.00;99.90;;;;;;5033870;28;20037;-77
2022/11/11 11:36:41;;;;;;;7.10;3.80;;;13.00;99.90;;;;;;5037307;28;20037;-79
2022/11/11 11:39:37;;;;;;;5.35;3.67;;;13.00;99.90;;;;;;5037591;28;20037;-82
2022/11/11 11:42:32;;;;;;;5.38;3.35;;;12.90;99.90;;;;;;5035672;28;20037;-78
2022/11/11 11:45:25;;;;;;;5.57;3.13;;;12.90;99.90;;;;;;5021713;28;20041;-79
2022/11/11 11:48:26;;;;;;;4.82;3.60;;;12.80;99.90;;;;;;5020121;28;20044;-80
2022/11/11 11:51:43;;;;;;;6.20;3.58;;;12.80;99.90;;;;;;5032346;28;20036;-82
2022/11/11 11:54:45;;;;;;;9.25;4.22;;;12.80;99.90;;;;;;5039018;28;20047;-79
2022/11/11 11:57:55;;;;;;;5.63;2.60;;;12.80;99.90;;;;;;5039755;28;20040;-81
2022/11/11 12:01:05;;;;;;;5.93;3.60;;;12.80;99.90;;;;;;5037708;28;20040;-81
2022/11/11 12:04:08;;;;;;;5.60;3.28;;;12.70;99.90;;;;;;5035688;28;20242;-83
2022/11/11 12:07:04;;;;;;;6.63;3.35;;;12.70;99.90;;;;;;5044993;28;20032;-87
2022/11/11 12:10:25;;;;;;;4.78;2.83;;;12.70;99.90;;;;;;5044418;28;20076;-80
2022/11/11 12:13:20;;;;;;;9.73;5.70;;;12.70;99.90;;;;;;5043460;28;20439;-77
2022/11/11 12:16:22;;;;;;;18.33;9.52;;;12.70;99.90;;;;;;5047745;28;20040;-87
2022/11/11 12:19:32;;;;;;;12.67;6.00;;;12.70;99.90;;;;;;5046484;28;20036;-87
2022/11/11 12:22:56;;;;;;;9.25;4.68;;;12.70;99.90;;;;;;5040896;28;20292;-84
2022/11/11 12:26:06;;;;;;;4.70;2.97;;;12.60;99.90;;;;;;5043988;28;20488;-86
2022/11/11 12:29:22;;;;;;;5.25;2.70;;;12.60;99.90;;;;;;5046275;28;20037;-87
2022/11/11 12:32:14;;;;;;;6.07;2.25;;;12.50;99.90;;;;;;5044453;28;20804;-80
2022/11/11 12:35:26;;;;;;;8.88;6.10;;;12.50;99.90;;;;;;5037146;28;20049;-80
2022/11/11 12:38:33;;;;;;;4.93;3.45;;;12.50;99.90;;;;;;5029721;28;20041;-79
2022/11/11 12:41:25;;;;;;;5.28;3.47;;;12.50;99.90;;;;;;5040822;28;20037;-82
2022/11/11 12:44:12;;;;;;;7.38;3.65;;;12.40;99.90;;;;;;5038750;28;20037;-86
2022/11/11 12:47:15;;;;;;;8.23;5.20;;;12.40;99.90;;;;;;5041157;28;21559;-81
2022/11/11 12:50:32;;;;;;;6.63;3.17;;;12.40;99.90;;;;;;5028699;28;20033;-83
2022/11/11 12:53:43;;;;;;;7.38;3.78;;;12.40;99.90;;;;;;5017073;28;20053;-82
2022/11/11 12:56:54;;;;;;;9.27;6.22;;;12.40;99.90;;;;;;5024272;28;20033;-80
2022/11/11 13:00:03;;;;;;;14.30;9.30;;;12.40;99.90;;;;;;5027535;28;20045;-85
2022/11/11 13:03:26;;;;;;;6.57;3.83;;;12.40;99.90;;;;;;5040625;28;20056;-88
2022/11/11 13:06:24;;;;;;;3.88;1.88;;;12.40;99.90;;;;;;5026753;28;20915;-92
2022/11/11 13:09:49;;;;;;;3.60;1.60;;;12.40;99.90;;;;;;5025974;28;20041;-88
2022/11/11 13:12:45;;;;;;;5.45;2.70;;;12.40;99.90;;;;;;5037015;28;20038;-86
2022/11/11 13:15:30;;;;;;;7.18;4.05;;;12.40;99.90;;;;;;5026723;28;20053;-84
2022/11/11 13:18:23;;;;;;;7.95;4.95;;;12.40;99.90;;;;;;5038694;28;20037;-85
2022/11/11 13:21:21;;;;;;;4.60;2.42;;;12.40;99.90;;;;;;5035650;28;20044;-82
2022/11/11 13:24:11;;;;;;;3.47;1.80;;;12.40;99.90;;;;;;5036710;28;20033;-85
2022/11/11 13:27:05;;;;;;;3.60;1.40;;;12.40;99.90;;;;;;5054041;28;20516;-83
2022/11/11 13:30:15;;;;;;;2.22;1.30;;;12.30;99.90;;;;;;5038323;28;20538;-78
2022/11/11 13:33:21;;;;;;;3.25;1.30;;;12.30;99.90;;;;;;5023408;28;20061;-82
2022/11/11 13:36:10;;;;;;;3.20;1.20;;;12.30;99.90;;;;;;5039420;28;20044;-84
2022/11/11 13:39:01;;;;;;;6.95;1.75;;;12.30;99.90;;;;;;5024832;28;20370;-79
2022/11/11 13:41:52;;;;;;;3.38;1.58;;;12.30;99.90;;;;;;5041420;28;20033;-84
2022/11/11 13:44:58;;;;;;;4.53;1.40;;;12.30;99.90;;;;;;5048896;28;20048;-85
2022/11/11 13:47:45;;;;;;;5.18;1.42;;;12.30;99.90;;;;;;5036368;28;20047;-83
2022/11/11 13:50:38;;;;;;;3.53;1.50;;;12.20;99.90;;;;;;5049441;28;20037;-81
2022/11/11 13:53:30;;;;;;;3.53;1.80;;;12.20;99.90;;;;;;5036480;28;20044;-91
2022/11/11 13:56:43;;;;;;;2.97;0.95;;;12.20;99.90;;;;;;5030612;28;20049;-92
2022/11/11 13:59:32;;;;;;;5.15;2.50;;;12.20;99.90;;;;;;5044685;28;20512;-82
2022/11/11 14:02:17;;;;;;;4.43;2.90;;;12.20;99.90;;;;;;5047847;28;20052;-84
2022/11/11 14:05:02;;;;;;;4.07;2.40;;;12.20;99.90;;;;;;5029539;28;20033;-87
2022/11/11 14:07:55;;;;;;;5.40;2.03;;;12.20;99.90;;;;;;5042570;28;20040;-86
2022/11/11 14:10:50;;;;;;;3.25;1.35;;;12.30;99.90;;;;;;5027653;28;20047;-92
2022/11/11 14:13:36;;;;;;;2.13;0.90;;;12.20;99.90;;;;;;5038136;28;20722;-89
2022/11/11 14:16:34;;;;;;;2.90;1.20;;;12.20;99.90;;;;;;5042842;28;20048;-83
2022/11/11 14:19:19;;;;;;;3.95;1.50;;;12.20;99.90;;;;;;5041589;28;20036;-86
2022/11/11 14:22:28;;;;;;;1.40;0.57;;;12.20;99.90;;;;;;5030046;28;20025;-83
2022/11/11 14:25:27;;;;;;;2.10;0.60;;;12.20;99.90;;;;;;5023819;28;20041;-83
2022/11/11 14:28:44;;;;;;;3.08;0.70;;;12.20;99.90;;;;;;5042568;28;20037;-84
2022/11/11 14:31:48;;;;;;;1.35;0.65;;;12.10;99.90;;;;;;5038878;28;20036;-82
2022/11/11 14:34:45;;;;;;;2.10;0.85;;;12.10;99.90;;;;;;5039766;28;20052;-81
2022/11/11 14:37:56;;;;;;;1.90;0.70;;;12.10;99.90;;;;;;5044034;28;20028;-80
2022/11/11 14:40:41;;;;;;;1.70;0.60;;;12.10;99.90;;;;;;5029141;28;20040;-83
2022/11/11 14:43:34;;;;;;;2.22;0.60;;;12.00;99.90;;;;;;5023758;28;20049;-82
2022/11/11 14:46:19;;;;;;;2.28;1.00;;;11.90;99.90;;;;;;5042262;28;20041;-79
2022/11/11 14:49:04;;;;;;;2.85;0.90;;;11.90;99.90;;;;;;5027174;28;20025;-82
2022/11/11 14:51:51;;;;;;;2.70;0.93;;;11.90;99.90;;;;;;5043613;28;20061;-82
2022/11/11 14:54:52;;;;;;;1.42;0.70;;;11.80;99.90;;;;;;5040544;28;20025;-84
2022/11/11 14:57:47;;;;;;;1.58;0.50;;;11.80;99.90;;;;;;5044030;28;20055;-84
2022/11/11 15:00:50;;;;;;;3.15;0.88;;;11.80;99.90;;;;;;5044359;28;20570;-80
2022/11/11 15:03:48;;;;;;;1.63;0.70;;;11.70;99.90;;;;;;5038686;28;20041;-78
2022/11/11 15:06:46;;;;;;;1.20;0.57;;;11.60;99.90;;;;;;5029566;28;20871;-80
2022/11/11 15:09:31;;;;;;;1.15;0.50;;;11.50;99.90;;;;;;5029127;28;20056;-82
2022/11/11 15:12:42;;;;;;;2.50;0.70;;;11.50;99.90;;;;;;5041821;28;20511;-83
2022/11/11 15:15:48;;;;;;;1.50;0.50;;;11.40;99.90;;;;;;5045211;28;20032;-83
2022/11/11 15:18:39;;;;;;;1.48;0.70;;;11.40;99.90;;;;;;5031471;28;20040;-83
2022/11/11 15:21:44;;;;;;;1.90;0.80;;;11.30;99.90;;;;;;5042391;28;20484;-78
2022/11/11 15:24:55;;;;;;;2.40;1.20;;;11.20;99.90;;;;;;5039191;28;20037;-81
2022/11/11 15:27:54;;;;;;;2.90;0.80;;;11.20;99.90;;;;;;5044182;28;20041;-84
2022/11/11 15:31:00;;;;;;;2.28;0.90;;;11.10;99.90;;;;;;5045368;28;20036;-81
2022/11/11 15:33:53;;;;;;;2.78;0.95;;;11.10;99.90;;;;;;5044853;28;20043;-80
2022/11/11 15:36:55;;;;;;;2.15;1.08;;;11.00;99.90;;;;;;5048166;28;20040;-83
2022/11/11 15:39:47;;;;;;;2.67;1.05;;;10.90;99.90;;;;;;5045777;28;20492;-85
2022/11/11 15:42:36;;;;;;;1.42;0.70;;;10.80;99.90;;;;;;5043535;28;20037;-85
2022/11/11 15:45:32;;;;;;;9.00;6.45;;;10.70;99.90;;;;;;5029783;28;20068;-85
2022/11/11 15:48:41;;;;;;;3.80;2.60;;;10.70;99.90;;;;;;5032156;28;20033;-78
2022/11/11 15:51:32;;;;;;;8.40;4.82;;;10.60;99.90;;;;;;5045597;28;20411;-79
2022/11/11 15:54:21;;;;;;;15.15;9.63;;;10.50;99.90;;;;;;5042834;28;20037;-78
2022/11/11 15:57:28;;;;;;;27.50;17.73;;;10.50;99.90;;;;;;5043653;28;20048;-78
2022/11/11 16:00:31;;;;;;;65.00;40.30;;;10.40;99.90;;;;;;5032095;28;20052;-78